Time;durP1;ratioP1;P1;durP2;ratioP2;P2;SDS_P1;SDS_P2;PMS_P1;PMS_P2;Temp;Humidity;BMP_temperature;BMP_pressure;BME280_temperature;BME280_humidity;BME280_pressure;Samples;Min_cycle;Max_cycle;Signal;HPM_P1;HPM_P2
2021/05/07 00:01:01;;;;;;;17.50;8.85;;;;;;;8.74;44.54;98694.17;1813208;79;21541;-61
2021/05/07 00:03:28;;;;;;;19.30;10.30;;;;;;;8.77;44.60;98689.92;1812950;79;21321;-60
2021/05/07 00:05:56;;;;;;;16.70;9.15;;;;;;;8.79;44.91;98693.38;1813124;78;21294;-60
2021/05/07 00:08:30;;;;;;;17.67;10.50;;;;;;;8.78;44.85;98699.39;1812819;79;21134;-60
2021/05/07 00:11:04;;;;;;;22.60;11.70;;;;;;;8.78;44.93;98696.81;1812788;79;21139;-59
2021/05/07 00:13:33;;;;;;;22.42;12.35;;;;;;;8.80;45.06;98696.42;1813088;78;21561;-60
2021/05/07 00:16:00;;;;;;;27.32;14.30;;;;;;;8.84;44.79;98698.59;1812814;79;21155;-60
2021/05/07 00:18:28;;;;;;;32.73;13.90;;;;;;;8.87;44.83;98693.05;1813091;79;21268;-59
2021/05/07 00:20:57;;;;;;;30.12;16.30;;;;;;;8.94;44.65;98692.73;1813072;79;21107;-59
2021/05/07 00:23:25;;;;;;;32.80;14.93;;;;;;;9.00;44.58;98694.08;1812799;79;21190;-61
2021/05/07 00:25:53;;;;;;;36.65;16.97;;;;;;;9.05;44.56;98683.85;1812785;79;21281;-59
2021/05/07 00:28:20;;;;;;;27.15;13.45;;;;;;;9.10;44.63;98684.77;1813102;79;21309;-60
2021/05/07 00:30:49;;;;;;;31.50;14.03;;;;;;;9.12;44.66;98679.22;1812980;79;21265;-60
2021/05/07 00:33:17;;;;;;;22.62;11.88;;;;;;;9.15;44.63;98676.68;1813087;79;21260;-60
2021/05/07 00:35:45;;;;;;;19.77;9.58;;;;;;;9.16;44.81;98676.25;1812877;78;21147;-60
2021/05/07 00:38:14;;;;;;;21.90;9.83;;;;;;;9.11;44.75;98665.50;1819318;78;21173;-60
2021/05/07 00:40:43;;;;;;;17.60;8.48;;;;;;;9.09;44.85;98666.32;1827272;78;21103;-59
2021/05/07 00:43:14;;;;;;;;;;;;;;;9.04;44.91;98666.69;1830226;78;21153;-59
2021/05/07 00:45:42;;;;;;;14.53;7.10;;;;;;;8.99;44.98;98663.20;1827169;78;20119;-60
2021/05/07 00:48:16;;;;;;;15.08;7.08;;;;;;;8.90;45.15;98659.67;1827334;78;21103;-59
2021/05/07 00:50:46;;;;;;;12.53;5.92;;;;;;;8.85;45.33;98661.32;1827303;78;21146;-60
2021/05/07 00:53:17;;;;;;;11.12;6.10;;;;;;;8.81;45.43;98667.26;1827631;78;21137;-62
2021/05/07 00:55:45;;;;;;;13.62;5.92;;;;;;;8.77;45.39;98665.48;1827280;77;21153;-62
2021/05/07 00:58:15;;;;;;;13.55;6.45;;;;;;;8.75;45.31;98663.73;1788310;80;21137;-61
2021/05/07 01:00:43;;;;;;;12.50;5.83;;;;;;;8.71;45.28;98666.69;1768835;81;21305;-60
2021/05/07 01:03:11;;;;;;;12.75;6.65;;;;;;;8.69;45.30;98663.23;1757512;80;21205;-59
2021/05/07 01:05:39;;;;;;;14.18;7.35;;;;;;;8.67;45.46;98661.05;1768860;81;21305;-59
2021/05/07 01:08:10;;;;;;;11.75;5.67;;;;;;;8.66;45.47;98665.77;1757268;81;21149;-59
2021/05/07 01:10:39;;;;;;;13.15;5.22;;;;;;;8.63;45.38;98669.59;1768847;81;21147;-61
2021/05/07 01:13:08;;;;;;;14.05;5.85;;;;;;;8.63;45.41;98665.73;1757601;81;21153;-60
2021/05/07 01:15:39;;;;;;;12.87;5.07;;;;;;;8.62;45.37;98673.84;1768470;81;21589;-62
2021/05/07 01:18:07;;;;;;;8.65;4.47;;;;;;;8.62;45.32;98675.13;1757273;81;21165;-59
2021/05/07 01:20:37;;;;;;;9.33;4.90;;;;;;;8.61;45.29;98664.41;1768939;81;21123;-59
2021/05/07 01:23:09;;;;;;;13.40;4.70;;;;;;;8.61;45.35;98664.84;1757524;81;21687;-59
2021/05/07 01:25:42;;;;;;;;;;;;;;;8.62;45.38;98661.41;1771650;81;21159;-59
2021/05/07 01:28:14;;;;;;;10.25;3.98;;;;;;;8.62;45.18;98657.55;1769084;81;20140;-59
2021/05/07 01:30:48;;;;;;;9.65;4.58;;;;;;;8.63;45.00;98655.44;1757225;82;21148;-60
2021/05/07 01:33:19;;;;;;;10.48;4.22;;;;;;;8.63;44.98;98657.59;1768975;81;21147;-60
2021/05/07 01:35:50;;;;;;;9.45;4.40;;;;;;;8.62;45.03;98657.55;1757633;81;21267;-60
2021/05/07 01:38:19;;;;;;;10.23;4.62;;;;;;;8.61;45.04;98657.13;1767815;81;21194;-60
2021/05/07 01:40:51;;;;;;;10.13;4.62;;;;;;;8.59;44.98;98654.95;1821633;79;21668;-59
2021/05/07 01:43:21;;;;;;;9.23;4.67;;;;;;;8.57;45.07;98657.91;1821721;77;21277;-58
2021/05/07 01:45:51;;;;;;;10.95;4.92;;;;;;;8.55;45.11;98660.48;1821203;78;21738;-58
2021/05/07 01:48:21;;;;;;;9.40;5.08;;;;;;;8.52;45.17;98655.27;1821617;79;21268;-60
2021/05/07 01:50:50;;;;;;;9.58;5.28;;;;;;;8.51;45.22;98653.98;1821611;77;21296;-59
2021/05/07 01:53:18;;;;;;;11.57;4.83;;;;;;;8.48;45.26;98653.52;1821305;77;21155;-61
2021/05/07 01:55:48;;;;;;;15.95;5.10;;;;;;;8.46;45.18;98656.05;1821571;77;21110;-60
2021/05/07 01:58:19;;;;;;;10.70;5.15;;;;;;;8.46;45.22;98661.63;1818811;77;21142;-58
2021/05/07 02:00:49;;;;;;;10.00;4.95;;;;;;;8.45;45.19;98662.05;1821452;79;21138;-59
2021/05/07 02:03:18;;;;;;;12.37;6.00;;;;;;;8.45;45.20;98664.63;1782466;80;21142;-58
2021/05/07 02:05:54;;;;;;;10.90;5.92;;;;;;;8.47;45.22;98669.38;1821560;78;21272;-58
2021/05/07 02:08:23;;;;;;;13.18;6.53;;;;;;;8.48;45.26;98669.80;1821522;79;21175;-58
2021/05/07 02:10:52;;;;;;;14.98;6.92;;;;;;;8.48;45.28;98674.09;1821282;79;21692;-58
2021/05/07 02:13:20;;;;;;;13.28;5.75;;;;;;;8.48;45.36;98678.80;1821304;77;21131;-58
2021/05/07 02:15:52;;;;;;;12.68;5.67;;;;;;;8.50;45.35;98675.37;1821394;79;21099;-58
2021/05/07 02:18:25;;;;;;;12.05;6.25;;;;;;;8.50;45.39;98669.84;1821578;77;21580;-58
2021/05/07 02:20:54;;;;;;;13.72;6.70;;;;;;;8.52;45.42;98676.27;1821651;79;21548;-58
2021/05/07 02:23:24;;;;;;;13.72;5.80;;;;;;;8.56;45.37;98674.20;1821268;79;21127;-59
2021/05/07 02:25:52;;;;;;;12.65;6.25;;;;;;;8.61;45.30;98676.41;1821491;78;21273;-59
2021/05/07 02:28:21;;;;;;;15.70;7.05;;;;;;;8.66;45.28;98669.63;1781647;80;21268;-60
2021/05/07 02:30:49;;;;;;;16.15;6.92;;;;;;;8.72;45.20;98674.84;1821671;78;21137;-60
2021/05/07 02:33:17;;;;;;;13.20;6.10;;;;;;;8.80;45.08;98674.55;1821321;79;21127;-59
2021/05/07 02:35:45;;;;;;;15.20;6.97;;;;;;;8.88;44.91;98673.36;1821325;79;21276;-60
2021/05/07 02:38:13;;;;;;;11.55;5.90;;;;;;;8.97;44.71;98670.03;1819760;78;21136;-60
2021/05/07 02:40:42;;;;;;;12.82;5.10;;;;;;;9.05;44.46;98661.54;1812723;78;21281;-60
2021/05/07 02:43:10;;;;;;;9.20;4.00;;;;;;;9.16;43.63;98665.55;1812999;79;21265;-60
2021/05/07 02:45:39;;;;;;;8.68;4.15;;;;;;;9.29;43.21;98660.13;1812896;79;21286;-60
2021/05/07 02:48:07;;;;;;;7.72;3.98;;;;;;;9.42;43.13;98666.27;1813018;78;21127;-61
2021/05/07 02:50:35;;;;;;;7.65;3.52;;;;;;;9.51;42.85;98661.20;1812994;79;21406;-62
2021/05/07 02:53:04;;;;;;;7.92;3.55;;;;;;;9.59;42.64;98656.98;1812808;79;21135;-59
2021/05/07 02:55:32;;;;;;;15.60;4.83;;;;;;;9.64;42.42;98659.61;1812906;79;21280;-61
2021/05/07 02:58:02;;;;;;;12.75;4.55;;;;;;;9.68;42.38;98663.52;1813007;79;21505;-60
2021/05/07 03:00:30;;;;;;;10.45;3.67;;;;;;;9.71;42.26;98666.13;1813206;78;21304;-60
2021/05/07 03:02:57;;;;;;;12.18;4.10;;;;;;;9.74;42.39;98671.33;1812934;78;21127;-60
2021/05/07 03:05:25;;;;;;;10.13;3.77;;;;;;;9.76;42.37;98667.03;1812893;78;21095;-60
2021/05/07 03:07:53;;;;;;;8.43;3.70;;;;;;;9.78;42.20;98667.91;1813194;78;21115;-62
2021/05/07 03:10:21;;;;;;;8.18;3.33;;;;;;;9.81;41.83;98666.22;1812944;78;21147;-61
2021/05/07 03:12:49;;;;;;;8.63;3.08;;;;;;;9.83;41.55;98667.95;1813162;78;21300;-61
2021/05/07 03:15:17;;;;;;;9.50;3.27;;;;;;;9.91;41.56;98670.61;1813241;78;21265;-60
2021/05/07 03:17:48;;;;;;;9.48;3.45;;;;;;;9.97;41.39;98670.25;1813115;79;21166;-62
2021/05/07 03:20:15;;;;;;;7.53;3.22;;;;;;;10.05;40.97;98672.89;1813091;79;21111;-59
2021/05/07 03:22:43;;;;;;;7.97;3.30;;;;;;;10.13;40.95;98667.80;1813168;79;21269;-61
2021/05/07 03:25:12;;;;;;;12.78;3.27;;;;;;;10.18;40.83;98669.55;1813174;78;21134;-60
2021/05/07 03:27:40;;;;;;;8.55;3.02;;;;;;;10.24;40.71;98675.17;1812852;79;21273;-60
2021/05/07 03:30:12;;;;;;;6.08;2.70;;;;;;;10.33;40.65;98678.27;1812814;78;21147;-61
2021/05/07 03:32:39;;;;;;;6.10;2.43;;;;;;;10.42;40.33;98681.78;1813301;78;21143;-61
2021/05/07 03:35:10;;;;;;;6.47;2.90;;;;;;;10.51;40.27;98684.01;1812820;79;21285;-59
2021/05/07 03:37:38;;;;;;;6.25;3.17;;;;;;;10.58;40.20;98684.06;1812794;79;21309;-61
2021/05/07 03:40:07;;;;;;;10.40;3.35;;;;;;;10.65;40.16;98675.91;1824540;78;21154;-59
2021/05/07 03:42:35;;;;;;;9.65;3.05;;;;;;;10.72;40.18;98688.00;1827579;78;21537;-62
2021/05/07 03:45:05;;;;;;;8.70;2.92;;;;;;;10.78;39.91;98679.42;1827465;78;21124;-61
2021/05/07 03:47:34;;;;;;;;;;;;;;;10.84;40.10;98684.64;1829776;78;21126;-60
2021/05/07 03:50:04;;;;;;;9.90;3.15;;;;;;;10.86;40.17;98691.53;1827394;78;20147;-60
2021/05/07 03:52:32;;;;;;;7.80;3.12;;;;;;;10.88;40.08;98686.80;1827245;78;21146;-62
2021/05/07 03:54:59;;;;;;;8.63;3.37;;;;;;;10.87;40.17;98692.39;1827519;78;21129;-61
2021/05/07 03:57:27;;;;;;;9.83;3.52;;;;;;;10.88;40.02;98680.34;1827625;77;21146;-61
2021/05/07 03:59:55;;;;;;;7.08;3.40;;;;;;;10.91;40.01;98691.53;1827524;78;21485;-61
2021/05/07 04:02:23;;;;;;;10.65;3.58;;;;;;;10.93;40.13;98686.39;1827148;77;21142;-59
2021/05/07 04:04:54;;;;;;;6.55;3.72;;;;;;;10.93;40.30;98687.68;1827321;78;21280;-60
2021/05/07 04:07:22;;;;;;;10.50;3.75;;;;;;;10.91;40.36;98692.82;1827365;78;21218;-61
2021/05/07 04:15:03;;;;;;;7.00;3.25;;;;;;;10.82;40.89;98697.95;1827191;78;21146;-62
2021/05/07 04:17:31;;;;;;;9.13;4.33;;;;;;;10.84;40.73;98709.16;1827515;77;21683;-63
2021/05/07 04:19:58;;;;;;;9.30;4.37;;;;;;;10.86;40.87;98704.44;1827534;78;21553;-61
2021/05/07 04:22:26;;;;;;;8.08;3.80;;;;;;;10.91;40.38;98691.97;1827475;78;21131;-60
2021/05/07 04:24:56;;;;;;;9.00;3.80;;;;;;;10.97;40.69;98707.08;1826763;77;21704;-64
2021/05/07 04:27:23;;;;;;;14.70;4.15;;;;;;;11.05;40.50;98707.11;1826997;77;21147;-63
2021/05/07 04:29:52;;;;;;;14.33;3.80;;;;;;;11.18;40.33;98705.45;1827197;78;21249;-62
2021/05/07 04:32:20;;;;;;;11.05;3.60;;;;;;;11.35;40.31;98702.91;1822900;78;21257;-63
2021/05/07 04:34:48;;;;;;;10.90;3.98;;;;;;;11.48;40.08;98704.27;1827384;78;21158;-61
2021/05/07 04:37:16;;;;;;;9.28;4.62;;;;;;;11.54;40.14;98707.30;1826901;78;21174;-62
2021/05/07 04:39:44;;;;;;;7.65;3.42;;;;;;;11.58;40.16;98703.88;1819245;78;21269;-64
2021/05/07 04:42:11;;;;;;;8.60;3.67;;;;;;;11.71;39.15;98700.89;1812554;79;21111;-61
2021/05/07 04:44:41;;;;;;;10.13;4.15;;;;;;;11.86;39.31;98694.89;1808306;79;21131;-61
2021/05/07 04:47:10;;;;;;;9.60;3.60;;;;;;;11.98;39.59;98689.73;1812744;78;21143;-61
2021/05/07 04:49:38;;;;;;;8.40;3.62;;;;;;;12.11;39.81;98698.36;1812515;78;21177;-61
2021/05/07 04:52:07;;;;;;;11.10;3.33;;;;;;;12.16;39.09;98696.64;1812193;78;21374;-62
2021/05/07 04:54:36;;;;;;;8.85;3.02;;;;;;;12.34;40.56;98697.95;1812612;78;21131;-61
2021/05/07 04:57:04;;;;;;;9.53;3.20;;;;;;;12.78;41.07;98703.94;1812564;78;21139;-62
2021/05/07 04:59:33;;;;;;;9.35;3.80;;;;;;;12.89;39.39;98703.91;1812388;78;21143;-61
2021/05/07 05:02:00;;;;;;;8.63;3.08;;;;;;;12.86;39.06;98700.03;1812161;78;21193;-63
2021/05/07 05:04:28;;;;;;;9.73;3.42;;;;;;;13.04;39.72;98690.91;1817162;78;21696;-62
2021/05/07 05:06:56;;;;;;;8.08;3.40;;;;;;;13.12;38.39;98694.33;1813005;78;21271;-61
2021/05/07 05:09:24;;;;;;;7.05;3.33;;;;;;;13.04;39.09;98703.86;1740015;81;21095;-61
2021/05/07 05:11:51;;;;;;;8.70;3.50;;;;;;;13.02;37.49;98700.41;1816419;78;21277;-60
2021/05/07 05:14:19;;;;;;;8.50;2.85;;;;;;;13.24;38.25;98689.54;1811486;77;21146;-61
2021/05/07 05:16:47;;;;;;;8.50;2.55;;;;;;;13.41;37.73;98699.88;1816538;78;21186;-61
2021/05/07 05:19:15;;;;;;;7.53;2.45;;;;;;;13.42;38.29;98696.41;1812621;78;21122;-62
2021/05/07 05:21:43;;;;;;;6.20;2.50;;;;;;;13.53;37.47;98703.68;1747307;81;21293;-62
2021/05/07 05:24:11;;;;;;;6.50;2.47;;;;;;;13.89;37.07;98694.84;1781020;79;21143;-62
2021/05/07 05:26:39;;;;;;;9.10;3.10;;;;;;;15.06;34.82;98694.23;1782267;80;21181;-62
2021/05/07 05:29:09;;;;;;;7.15;2.45;;;;;;;16.36;32.84;98701.98;1813511;79;21112;-62
2021/05/07 05:31:37;;;;;;;9.10;2.27;;;;;;;17.64;31.16;98699.14;1802920;79;21135;-60
2021/05/07 05:34:05;;;;;;;7.40;2.25;;;;;;;18.53;29.28;98702.30;1803921;79;21103;-62
2021/05/07 05:36:33;;;;;;;5.65;1.90;;;;;;;19.03;27.83;98698.37;1738963;82;21158;-61
2021/05/07 05:39:02;;;;;;;7.80;2.22;;;;;;;19.44;27.25;98702.88;1774265;80;21209;-61
2021/05/07 05:41:29;;;;;;;4.55;2.15;;;;;;;19.58;27.02;98705.54;1805020;79;21342;-62
2021/05/07 05:43:58;;;;;;;7.70;1.87;;;;;;;19.60;27.16;98702.43;1735351;83;21384;-61
2021/05/07 05:46:25;;;;;;;6.70;2.37;;;;;;;19.77;26.82;98698.89;1804461;79;21289;-62
2021/05/07 05:48:53;;;;;;;6.12;2.05;;;;;;;19.91;27.97;98691.44;1801724;79;21225;-62
2021/05/07 05:51:20;;;;;;;5.22;1.70;;;;;;;20.57;27.41;98688.47;1735653;83;21245;-62
2021/05/07 05:53:48;;;;;;;5.28;1.87;;;;;;;21.41;25.86;98687.25;1803298;79;21332;-63
2021/05/07 05:56:16;;;;;;;6.10;2.12;;;;;;;21.66;25.68;98691.13;1738428;82;21288;-62
2021/05/07 05:58:45;;;;;;;5.30;1.82;;;;;;;21.85;25.20;98697.38;1775722;79;21306;-62
2021/05/07 06:01:13;;;;;;;6.30;2.30;;;;;;;21.30;25.28;98700.75;1741369;82;21150;-63
2021/05/07 06:03:40;;;;;;;5.22;2.10;;;;;;;20.29;26.85;98703.77;1741232;82;21289;-63
2021/05/07 06:06:08;;;;;;;5.28;1.85;;;;;;;19.79;27.06;98709.30;1784146;80;21281;-62
2021/05/07 06:08:36;;;;;;;6.97;2.10;;;;;;;19.16;28.26;98698.02;1798010;79;21284;-61
2021/05/07 06:11:04;;;;;;;6.92;2.33;;;;;;;19.05;28.58;98700.93;1804338;79;21163;-60
2021/05/07 06:13:33;;;;;;;6.15;2.25;;;;;;;18.58;29.19;98708.27;1803102;79;21162;-60
2021/05/07 06:16:00;;;;;;;7.03;2.30;;;;;;;17.65;30.11;98699.09;1800603;79;21151;-62
2021/05/07 06:18:29;;;;;;;6.75;2.08;;;;;;;17.65;30.11;98699.09;1800425;79;21707;-60
2021/05/07 06:20:57;;;;;;;5.78;2.08;;;;;;;17.97;30.55;98697.10;1729972;83;21175;-60
2021/05/07 06:23:25;;;;;;;5.47;2.17;;;;;;;18.44;29.57;98699.03;1800754;79;21143;-61
2021/05/07 06:25:53;;;;;;;5.40;2.22;;;;;;;18.70;29.50;98693.58;1800767;79;21179;-62
2021/05/07 06:28:21;;;;;;;4.80;2.00;;;;;;;18.70;29.50;98693.58;1800367;79;21115;-61
2021/05/07 06:30:49;;;;;;;6.72;2.30;;;;;;;19.24;28.73;98700.84;1729721;82;21384;-63
2021/05/07 06:33:17;;;;;;;5.03;2.02;;;;;;;18.87;28.90;98690.06;1730050;83;21225;-60
2021/05/07 06:35:45;;;;;;;4.97;2.02;;;;;;;18.87;28.90;98690.06;1800473;79;21281;-60
2021/05/07 06:38:13;;;;;;;5.33;2.02;;;;;;;18.74;28.61;98703.48;1773635;80;21285;-61
2021/05/07 06:40:40;;;;;;;6.78;2.47;;;;;;;18.14;29.07;98706.28;1805084;79;21285;-61
2021/05/07 06:43:10;;;;;;;6.42;2.40;;;;;;;17.94;29.76;98695.88;1818065;78;21290;-60
2021/05/07 06:45:38;;;;;;;5.40;2.22;;;;;;;17.85;30.14;98697.83;1813204;79;21170;-61
2021/05/07 06:48:07;;;;;;;4.15;1.90;;;;;;;17.60;30.83;98697.03;1741672;82;21203;-60
2021/05/07 06:50:35;;;;;;;5.60;2.15;;;;;;;17.65;30.21;98686.50;1813239;78;21341;-62
2021/05/07 06:53:03;;;;;;;5.47;2.10;;;;;;;17.58;30.70;98674.91;1808925;78;21316;-62
2021/05/07 06:55:32;;;;;;;5.17;2.08;;;;;;;17.40;31.02;98670.52;1808962;79;21159;-61
2021/05/07 06:58:00;;;;;;;5.97;2.35;;;;;;;17.05;30.91;98689.92;1809190;79;21130;-61
2021/05/07 07:00:28;;;;;;;6.05;2.22;;;;;;;16.89;31.60;98690.66;1747456;82;21269;-60
2021/05/07 07:02:55;;;;;;;8.18;2.52;;;;;;;16.75;31.78;98675.69;1781021;79;21146;-61
2021/05/07 07:05:23;;;;;;;6.85;1.90;;;;;;;16.84;32.11;98655.12;1745260;82;21134;-59
2021/05/07 07:07:53;;;;;;;6.72;2.00;;;;;;;16.95;31.71;98684.47;1811024;79;21278;-62
2021/05/07 07:10:22;;;;;;;7.97;2.20;;;;;;;16.54;32.20;98676.06;1749485;82;21294;-60
2021/05/07 07:12:52;;;;;;;5.37;2.22;;;;;;;16.41;33.18;98680.63;1809551;79;21162;-60
2021/05/07 07:15:19;;;;;;;3.87;1.90;;;;;;;16.52;33.13;98667.44;1721824;83;21318;-60
2021/05/07 07:17:47;;;;;;;6.97;2.25;;;;;;;16.57;32.78;98659.95;1801672;79;21146;-61
2021/05/07 07:20:15;;;;;;;5.40;2.08;;;;;;;16.64;32.50;98678.95;1812484;79;21186;-61
2021/05/07 07:22:44;;;;;;;5.20;2.08;;;;;;;16.54;32.83;98656.52;1812654;79;21529;-60
2021/05/07 07:25:13;;;;;;;6.37;2.10;;;;;;;16.68;32.42;98651.48;1812629;79;21130;-62
2021/05/07 07:27:41;;;;;;;5.03;2.00;;;;;;;16.74;32.81;98658.34;1812390;79;21154;-62
2021/05/07 07:30:11;;;;;;;5.87;2.25;;;;;;;16.97;32.52;98667.48;1812510;79;21284;-61
2021/05/07 07:32:38;;;;;;;21.15;2.30;;;;;;;16.83;31.85;98680.79;1812414;79;21134;-62
2021/05/07 07:35:09;;;;;;;4.53;1.67;;;;;;;16.58;33.48;98665.56;1812530;79;21166;-55
2021/05/07 07:37:37;;;;;;;7.92;1.92;;;;;;;16.67;33.17;98654.13;1812235;79;21608;-60
2021/05/07 07:40:08;;;;;;;6.15;1.70;;;;;;;16.70;33.21;98663.19;1812259;79;21174;-59
2021/05/07 07:42:35;;;;;;;10.82;2.35;;;;;;;16.69;33.93;98662.78;1743543;82;21190;-59
2021/05/07 07:45:06;;;;;;;9.08;2.70;;;;;;;16.81;33.60;98652.59;1746775;82;21298;-58
2021/05/07 07:47:34;;;;;;;6.20;2.15;;;;;;;16.96;33.74;98660.11;1802504;79;21562;-58
2021/05/07 07:50:05;;;;;;;12.20;2.62;;;;;;;16.90;33.97;98640.69;1803089;79;21207;-59
2021/05/07 07:52:33;;;;;;;5.72;2.35;;;;;;;16.98;33.88;98643.14;1803645;79;21123;-58
2021/05/07 07:55:03;;;;;;;8.95;2.12;;;;;;;16.96;34.03;98649.68;1804027;79;21186;-58
2021/05/07 07:57:30;;;;;;;5.85;2.10;;;;;;;16.85;33.60;98654.26;1803866;79;21727;-57
2021/05/07 07:59:58;;;;;;;4.85;2.55;;;;;;;16.85;34.18;98649.05;1807767;79;21297;-62
2021/05/07 08:02:26;;;;;;;8.35;2.15;;;;;;;17.05;34.03;98635.17;1806171;79;21301;-64
2021/05/07 08:04:54;;;;;;;4.30;2.35;;;;;;;17.18;33.95;98641.44;1735534;83;21164;-65
2021/05/07 08:07:22;;;;;;;3.47;1.52;;;;;;;17.24;33.52;98634.77;1745324;82;21166;-63
2021/05/07 08:09:51;;;;;;;4.87;1.77;;;;;;;17.10;33.02;98583.78;1792901;79;21308;-66
2021/05/07 08:12:19;;;;;;;4.92;1.70;;;;;;;16.78;33.34;98638.32;1804095;79;21131;-66
2021/05/07 08:14:47;;;;;;;4.33;1.52;;;;;;;16.37;33.68;98630.80;1803953;79;21171;-62
2021/05/07 08:17:14;;;;;;;3.83;1.35;;;;;;;16.18;33.66;98633.73;1804217;79;21112;-62
2021/05/07 08:19:44;;;;;;;5.53;1.65;;;;;;;16.19;33.63;98620.27;1733444;83;21159;-62
2021/05/07 08:22:12;;;;;;;6.28;1.70;;;;;;;16.22;33.76;98630.17;1733412;82;21337;-64
2021/05/07 08:24:41;;;;;;;9.88;1.72;;;;;;;16.26;34.07;98619.28;1738404;82;21130;-63
2021/05/07 08:27:08;;;;;;;3.77;1.30;;;;;;;16.28;33.68;98636.59;1743665;82;21183;-64
2021/05/07 08:29:36;;;;;;;3.05;1.55;;;;;;;16.26;34.19;98635.75;1812648;79;21519;-63
2021/05/07 08:32:05;;;;;;;5.90;1.82;;;;;;;16.15;34.75;98632.45;1813800;79;21616;-61
2021/05/07 08:34:33;;;;;;;4.75;1.45;;;;;;;16.12;34.83;98633.81;1824492;79;21141;-63
2021/05/07 08:37:01;;;;;;;4.45;1.67;;;;;;;15.95;35.01;98608.50;1824716;79;21189;-63
2021/05/07 08:39:31;;;;;;;7.47;2.60;;;;;;;15.89;35.27;98622.48;1817325;79;21691;-63
2021/05/07 08:41:59;;;;;;;7.28;2.30;;;;;;;15.91;35.31;98624.62;1812922;79;21155;-62
2021/05/07 08:44:27;;;;;;;5.95;2.08;;;;;;;15.92;35.27;98622.88;1803582;79;21171;-62
2021/05/07 08:46:55;;;;;;;3.80;1.45;;;;;;;15.93;35.48;98628.06;1801268;80;21329;-61
2021/05/07 08:49:24;;;;;;;4.22;1.60;;;;;;;16.07;35.41;98630.43;1723073;82;21159;-61
2021/05/07 08:51:52;;;;;;;4.15;1.40;;;;;;;16.30;35.07;98636.55;1791195;79;21150;-61
2021/05/07 08:54:22;;;;;;;6.25;1.40;;;;;;;16.64;34.51;98618.57;1743027;82;21158;-60
2021/05/07 08:56:50;;;;;;;3.15;1.35;;;;;;;17.03;34.18;98616.09;1743715;82;21301;-62
2021/05/07 08:59:19;;;;;;;6.47;1.60;;;;;;;17.17;33.50;98612.33;1743709;82;21232;-61
2021/05/07 09:01:50;;;;;;;6.00;1.82;;;;;;;17.01;33.58;98579.20;1743616;82;21186;-61
2021/05/07 09:04:21;;;;;;;4.92;1.60;;;;;;;17.00;33.76;98608.79;1743640;82;21174;-61
2021/05/07 09:06:52;;;;;;;5.58;1.40;;;;;;;16.84;34.25;98635.58;1743723;82;21186;-64
2021/05/07 09:09:29;;;;;;;7.70;1.75;;;;;;;16.86;34.73;98590.80;1744060;82;21643;-64
2021/05/07 09:12:04;;;;;;;4.75;1.47;;;;;;;16.97;34.34;98590.16;1743981;82;21158;-62
2021/05/07 09:14:31;;;;;;;4.37;1.52;;;;;;;16.92;34.81;98581.58;1743716;82;21166;-61
2021/05/07 09:17:03;;;;;;;6.35;1.90;;;;;;;16.94;34.83;98596.71;1740771;82;21605;-63
2021/05/07 09:19:35;;;;;;;7.78;1.80;;;;;;;17.09;35.06;98574.68;1743599;82;21324;-62
2021/05/07 09:22:02;;;;;;;3.75;1.45;;;;;;;17.31;34.35;98581.59;1762733;80;21123;-63
2021/05/07 09:24:38;;;;;;;6.62;1.87;;;;;;;17.52;34.12;98586.31;1818387;79;21272;-61
2021/05/07 09:27:07;;;;;;;5.12;1.70;;;;;;;17.69;33.99;98582.47;1818387;79;21143;-64
2021/05/07 09:29:36;;;;;;;6.83;1.50;;;;;;;17.44;34.27;98556.94;1818762;79;21118;-63
2021/05/07 09:32:04;;;;;;;3.20;1.55;;;;;;;17.36;34.77;98558.88;1818391;79;21138;-63
2021/05/07 09:34:37;;;;;;;4.70;1.65;;;;;;;17.44;35.16;98551.72;1818400;79;21272;-60
2021/05/07 09:37:19;;;;;;;4.60;1.55;;;;;;;17.69;35.13;98551.15;1818458;79;21145;-59
2021/05/07 09:39:47;;;;;;;4.33;1.98;;;;;;;17.85;34.79;98545.13;1818338;79;21290;-62
2021/05/07 09:42:24;;;;;;;4.97;1.40;;;;;;;17.76;34.51;98517.48;1819048;79;21223;-61
2021/05/07 09:44:52;;;;;;;7.35;1.50;;;;;;;17.50;34.72;98545.50;1813181;79;21162;-60
2021/05/07 09:47:20;;;;;;;3.27;1.60;;;;;;;17.55;34.75;98543.63;1813234;79;21143;-60
2021/05/07 09:49:49;;;;;;;3.42;1.25;;;;;;;17.41;35.29;98543.98;1741754;82;21729;-63
2021/05/07 09:52:28;;;;;;;5.30;1.65;;;;;;;17.16;35.91;98538.46;1813420;79;21158;-61
2021/05/07 09:54:56;;;;;;;4.22;1.30;;;;;;;16.98;36.37;98546.69;1811462;79;21325;-60
2021/05/07 10:55:11;;;;;;;5.62;1.70;;;;;;;16.84;34.47;98460.97;1853401;77;22183;-61
2021/05/07 10:57:39;;;;;;;7.62;1.45;;;;;;;16.89;34.36;98449.99;1825995;78;21222;-62
2021/05/07 11:00:14;;;;;;;5.50;2.08;;;;;;;17.03;34.04;98466.64;1758787;81;21146;-63
2021/05/07 11:02:54;;;;;;;4.00;1.72;;;;;;;17.04;33.87;98448.33;1756971;82;21288;-64
2021/05/07 11:05:50;;;;;;;7.35;1.67;;;;;;;17.07;33.91;98435.25;1758690;81;21320;-64
2021/05/07 11:08:19;;;;;;;5.05;1.20;;;;;;;17.07;33.80;98451.31;1700917;81;21143;-63
2021/05/07 11:10:49;;;;;;;8.40;1.80;;;;;;;17.11;33.65;98456.88;1753430;81;21162;-64
2021/05/07 11:13:17;;;;;;;7.20;1.32;;;;;;;17.11;33.91;98478.59;1777017;80;21127;-64
2021/05/07 11:15:55;;;;;;;4.22;1.52;;;;;;;17.17;34.21;98381.56;1789808;80;21572;-62
2021/05/07 11:18:32;;;;;;;5.28;1.45;;;;;;;17.15;33.85;98440.28;1758640;81;21154;-62
2021/05/07 11:21:15;;;;;;;5.15;2.02;;;;;;;17.19;34.08;98375.87;1758784;81;21235;-61
2021/05/07 11:23:45;;;;;;;4.20;1.30;;;;;;;17.34;34.40;98423.72;1738987;81;21136;-61
2021/05/07 11:26:13;;;;;;;3.83;1.92;;;;;;;17.47;34.19;98374.25;1728800;82;21405;-63
2021/05/07 11:28:44;;;;;;;5.95;1.37;;;;;;;17.50;34.28;98370.28;1708667;82;21324;-64
2021/05/07 11:31:11;;;;;;;5.42;1.67;;;;;;;17.54;34.58;98399.74;1737467;82;21311;-63
2021/05/07 11:33:43;;;;;;;3.20;1.45;;;;;;;17.57;34.79;98380.94;1737691;82;21137;-60
2021/05/07 11:36:16;;;;;;;5.15;1.47;;;;;;;17.62;34.75;98387.80;1737422;82;21150;-63
2021/05/07 11:38:43;;;;;;;4.42;1.30;;;;;;;17.67;34.87;98366.34;1737443;82;21269;-62
2021/05/07 11:41:26;;;;;;;4.65;1.42;;;;;;;17.56;34.90;98400.11;1737435;82;21571;-64
2021/05/07 11:43:55;;;;;;;7.50;1.72;;;;;;;17.41;35.70;98333.99;1737737;82;21170;-62
2021/05/07 11:46:23;;;;;;;5.22;1.87;;;;;;;17.38;36.00;98369.30;1737455;82;21190;-61
2021/05/07 11:48:51;;;;;;;5.05;1.65;;;;;;;17.50;36.37;98368.98;1737462;82;21166;-61
2021/05/07 11:51:22;;;;;;;8.00;2.10;;;;;;;17.67;35.94;98375.48;1737585;82;21339;-63
2021/05/07 11:53:57;;;;;;;7.35;1.92;;;;;;;17.76;35.97;98347.84;1732382;82;21328;-61
2021/05/07 11:56:27;;;;;;;7.70;2.00;;;;;;;17.75;35.98;98362.61;1722153;83;21131;-61
2021/05/07 11:58:54;;;;;;;5.35;1.50;;;;;;;17.71;36.24;98353.18;1722132;83;21550;-62
2021/05/07 12:01:27;;;;;;;4.40;1.50;;;;;;;17.64;36.46;98370.35;1721886;83;21170;-61
2021/05/07 12:03:57;;;;;;;4.58;1.40;;;;;;;17.53;36.99;98345.86;1780152;80;21207;-63
2021/05/07 12:06:28;;;;;;;8.73;2.35;;;;;;;17.45;37.40;98348.64;1779239;81;21260;-63
2021/05/07 12:09:11;;;;;;;4.83;1.80;;;;;;;17.41;37.73;98309.21;1779285;80;21556;-63
2021/05/07 12:11:39;;;;;;;3.58;1.57;;;;;;;17.35;38.12;98338.05;1779599;80;21572;-63
2021/05/07 12:14:14;;;;;;;6.70;1.77;;;;;;;17.32;38.04;98304.23;1779463;81;21288;-64
2021/05/07 12:16:42;;;;;;;7.15;1.98;;;;;;;17.33;38.34;98303.36;1779488;81;21726;-62
2021/05/07 12:19:19;;;;;;;6.20;2.12;;;;;;;17.29;38.18;98333.01;1779237;80;21227;-64
2021/05/07 12:21:47;;;;;;;6.05;1.70;;;;;;;17.28;38.21;98319.58;1779585;80;21560;-63
2021/05/07 12:24:27;;;;;;;3.10;1.65;;;;;;;17.30;38.29;98280.82;1779224;80;21130;-66
2021/05/07 12:26:55;;;;;;;5.83;1.70;;;;;;;17.41;38.29;98267.94;1779324;80;21164;-63
2021/05/07 12:29:36;;;;;;;8.05;1.80;;;;;;;17.57;38.32;98306.58;1779241;80;21154;-65
2021/05/07 12:32:07;;;;;;;5.78;1.92;;;;;;;17.71;38.48;98263.60;1779596;80;21300;-64
2021/05/07 12:34:35;;;;;;;11.78;1.87;;;;;;;17.83;38.53;98262.40;1779229;80;21150;-65
2021/05/07 12:37:05;;;;;;;6.50;1.75;;;;;;;17.95;38.59;98275.09;1779554;80;21284;-63
2021/05/07 12:39:34;;;;;;;5.85;1.72;;;;;;;18.04;38.91;98260.89;1779581;80;21308;-63
2021/05/07 12:42:03;;;;;;;5.78;1.77;;;;;;;18.03;38.98;98257.89;1779607;80;21185;-62
2021/05/07 12:44:34;;;;;;;;;;;;;;;18.07;39.17;98250.38;1782190;80;21288;-62
2021/05/07 12:47:01;;;;;;;6.55;2.35;;;;;;;18.32;38.87;98223.02;1779588;80;20147;-61